createdAt,value
2022-08-26T00:01:18.845Z,20.77
2022-08-26T00:03:56.563Z,20.76
2022-08-26T00:06:23.810Z,20.74
2022-08-26T00:08:50.943Z,20.75
2022-08-26T00:11:26.715Z,20.78
2022-08-26T00:13:55.609Z,20.79
2022-08-26T00:16:28.167Z,20.79
2022-08-26T00:18:55.544Z,20.79
2022-08-26T00:21:22.468Z,20.79
2022-08-26T00:23:50.438Z,20.71
2022-08-26T00:26:17.434Z,20.62
2022-08-26T00:28:44.957Z,20.61
2022-08-26T00:31:12.005Z,20.58
2022-08-26T00:33:40.067Z,20.55
2022-08-26T00:36:07.976Z,20.56
2022-08-26T00:38:47.149Z,20.55
2022-08-26T00:41:14.138Z,20.51
2022-08-26T00:43:47.511Z,20.55
2022-08-26T00:46:22.702Z,20.49
2022-08-26T00:48:53.556Z,20.51
2022-08-26T00:51:23.932Z,20.51
2022-08-26T00:53:58.305Z,20.52
2022-08-26T00:56:30.189Z,20.52
2022-08-26T00:58:59.426Z,20.54
2022-08-26T01:01:28.344Z,20.61
2022-08-26T01:03:58.064Z,20.63
2022-08-26T01:06:25.160Z,20.67
2022-08-26T01:08:53.426Z,20.69
2022-08-26T01:11:20.984Z,20.66
2022-08-26T01:13:49.095Z,20.64
2022-08-26T01:16:17.243Z,20.61
2022-08-26T01:18:46.859Z,20.64
2022-08-26T01:21:27.226Z,20.57
2022-08-26T01:23:57.397Z,20.60
2022-08-26T01:26:30.806Z,20.58
2022-08-26T01:29:01.412Z,20.59
2022-08-26T01:31:32.680Z,20.59
2022-08-26T01:34:28.205Z,20.60
2022-08-26T01:37:02.404Z,20.68
2022-08-26T01:39:31.196Z,20.73
2022-08-26T01:41:59.053Z,20.76
2022-08-26T01:44:33.098Z,20.82
2022-08-26T01:47:00.504Z,20.85
2022-08-26T01:49:28.073Z,20.90
2022-08-26T01:51:59.372Z,20.88
2022-08-26T01:54:26.575Z,20.88
2022-08-26T01:56:55.216Z,20.87
2022-08-26T01:59:23.913Z,20.90
2022-08-26T02:01:51.698Z,20.92
2022-08-26T02:04:28.248Z,20.87
2022-08-26T02:06:56.304Z,20.88
2022-08-26T02:09:24.485Z,20.85
2022-08-26T02:11:52.465Z,20.85
2022-08-26T02:14:26.835Z,20.71
2022-08-26T02:16:55.393Z,20.68
2022-08-26T02:19:26.522Z,20.58
2022-08-26T02:21:53.943Z,20.58
2022-08-26T02:24:24.693Z,20.59
2022-08-26T02:26:58.771Z,20.57
2022-08-26T02:29:31.638Z,20.63
2022-08-26T02:31:59.240Z,20.67
2022-08-26T02:34:32.361Z,20.73
2022-08-26T02:37:02.200Z,20.73
2022-08-26T02:39:31.940Z,20.76
2022-08-26T02:41:59.265Z,20.72
2022-08-26T02:44:27.359Z,20.63
2022-08-26T02:46:55.073Z,20.58
2022-08-26T02:49:23.728Z,20.58
2022-08-26T02:51:50.904Z,20.54
2022-08-26T02:54:21.354Z,20.58
2022-08-26T02:56:48.696Z,20.62
2022-08-26T02:59:15.647Z,20.64
2022-08-26T03:01:42.938Z,20.63
2022-08-26T03:04:11.643Z,20.60
2022-08-26T03:06:39.288Z,20.60
2022-08-26T03:09:08.745Z,20.59
2022-08-26T03:11:36.691Z,20.61
2022-08-26T03:14:03.946Z,20.64
2022-08-26T03:16:33.073Z,20.71
2022-08-26T03:19:01.092Z,20.68
2022-08-26T03:21:27.954Z,20.73
2022-08-26T03:23:55.154Z,20.75
2022-08-26T03:26:26.145Z,20.73
2022-08-26T03:29:12.087Z,20.70
2022-08-26T03:31:39.374Z,20.68
2022-08-26T03:34:07.005Z,20.67
2022-08-26T03:36:35.180Z,20.64
2022-08-26T03:39:02.901Z,20.58
2022-08-26T03:41:32.632Z,20.57
2022-08-26T03:44:01.691Z,20.60
2022-08-26T03:46:29.084Z,20.64
2022-08-26T03:48:57.825Z,20.63
2022-08-26T03:51:25.957Z,20.65
2022-08-26T03:53:53.646Z,20.72
2022-08-26T03:56:20.754Z,20.69
2022-08-26T03:58:47.651Z,20.61
2022-08-26T04:01:16.257Z,20.65
2022-08-26T04:04:02.044Z,20.64
2022-08-26T04:06:36.330Z,20.57
2022-08-26T04:09:13.581Z,20.59
2022-08-26T04:11:43.321Z,20.61
2022-08-26T04:14:17.765Z,20.52
2022-08-26T04:16:48.126Z,20.53
2022-08-26T04:19:15.994Z,20.55
2022-08-26T04:21:44.160Z,20.53
2022-08-26T04:24:12.681Z,20.56
2022-08-26T04:26:42.867Z,20.58
2022-08-26T04:29:14.298Z,20.63
2022-08-26T04:31:41.375Z,20.64
2022-08-26T04:34:08.551Z,20.64
2022-08-26T04:36:38.582Z,20.69
2022-08-26T04:39:05.650Z,20.62
2022-08-26T04:41:33.588Z,20.56
2022-08-26T04:44:02.425Z,20.61
2022-08-26T04:46:30.023Z,20.58
2022-08-26T04:48:57.024Z,20.62
2022-08-26T04:51:28.129Z,20.62
2022-08-26T04:53:59.055Z,20.62
2022-08-26T04:56:32.646Z,20.62
2022-08-26T04:59:01.577Z,20.64
2022-08-26T05:01:31.595Z,20.70
2022-08-26T05:03:59.234Z,20.76
2022-08-26T05:06:28.139Z,20.77
2022-08-26T05:08:55.117Z,20.79
2022-08-26T05:11:22.235Z,20.77
2022-08-26T05:13:49.473Z,20.78
2022-08-26T05:16:17.252Z,20.75
2022-08-26T05:18:45.707Z,20.71
2022-08-26T05:21:22.906Z,20.67
2022-08-26T05:23:55.065Z,20.72
2022-08-26T05:26:24.554Z,20.74
2022-08-26T05:28:54.871Z,20.80
2022-08-26T05:31:32.566Z,20.79
2022-08-26T05:34:00.664Z,20.80
2022-08-26T05:36:33.514Z,20.86
2022-08-26T05:39:01.771Z,20.95
2022-08-26T05:41:36.307Z,20.97
2022-08-26T05:44:06.796Z,20.94
2022-08-26T05:46:34.654Z,21.03
2022-08-26T05:49:02.558Z,21.08
2022-08-26T05:51:30.860Z,21.11
2022-08-26T05:53:58.483Z,21.11
2022-08-26T05:56:27.657Z,21.12
2022-08-26T05:58:56.300Z,21.17
2022-08-26T06:01:27.501Z,21.16
2022-08-26T06:04:01.561Z,21.18
2022-08-26T06:06:34.643Z,21.27
2022-08-26T06:09:05.307Z,21.28
2022-08-26T06:11:33.402Z,21.27
2022-08-26T06:14:04.129Z,21.14
2022-08-26T06:16:34.737Z,21.12
2022-08-26T06:19:03.553Z,21.24
2022-08-26T06:21:41.199Z,21.32
2022-08-26T06:24:31.253Z,21.22
2022-08-26T06:27:01.614Z,21.38
2022-08-26T06:29:31.185Z,21.41
2022-08-26T06:31:58.531Z,21.44
2022-08-26T06:34:29.874Z,21.43
2022-08-26T06:37:01.167Z,21.58
2022-08-26T06:39:30.815Z,21.72
2022-08-26T06:41:59.177Z,21.87
2022-08-26T06:44:26.920Z,21.99
2022-08-26T06:46:54.191Z,22.07
2022-08-26T06:49:26.910Z,22.18
2022-08-26T06:52:00.830Z,22.23
2022-08-26T06:54:30.436Z,22.29
2022-08-26T06:56:57.649Z,22.39
2022-08-26T06:59:25.343Z,22.48
2022-08-26T07:01:53.548Z,22.62
2022-08-26T07:04:22.396Z,22.74
2022-08-26T07:06:52.867Z,22.82
2022-08-26T07:09:22.583Z,22.96
2022-08-26T07:11:51.402Z,23.13
2022-08-26T07:14:21.089Z,23.33
2022-08-26T07:16:49.902Z,23.49
2022-08-26T07:19:30.209Z,23.64
2022-08-26T07:22:03.510Z,23.86
2022-08-26T07:24:35.348Z,24.04
2022-08-26T07:27:06.751Z,24.15
2022-08-26T07:29:36.611Z,24.27
2022-08-26T07:32:04.172Z,24.44
2022-08-26T07:34:33.171Z,24.52
2022-08-26T07:37:01.110Z,24.68
2022-08-26T07:39:31.549Z,24.89
2022-08-26T07:42:01.464Z,25.11
2022-08-26T07:44:35.241Z,25.21
2022-08-26T07:47:02.331Z,25.17
2022-08-26T07:49:29.705Z,25.28
2022-08-26T07:51:57.091Z,25.50
2022-08-26T07:54:26.767Z,25.63
2022-08-26T07:56:54.821Z,25.73
2022-08-26T07:59:23.581Z,25.75
2022-08-26T08:01:51.012Z,25.72
2022-08-26T08:04:25.525Z,25.87
2022-08-26T08:06:54.041Z,26.05
2022-08-26T08:09:22.381Z,26.21
2022-08-26T08:11:49.989Z,26.31
2022-08-26T08:14:18.691Z,26.33
2022-08-26T08:16:51.134Z,26.32
2022-08-26T08:19:21.893Z,26.14
2022-08-26T08:21:49.329Z,26.27
2022-08-26T08:24:16.383Z,26.06
2022-08-26T08:26:43.561Z,26.20
2022-08-26T08:29:12.503Z,26.43
2022-08-26T08:31:56.739Z,26.36
2022-08-26T08:34:28.024Z,26.45
2022-08-26T08:36:56.364Z,26.67
2022-08-26T08:39:23.951Z,26.82
2022-08-26T08:42:23.535Z,26.44
2022-08-26T08:44:52.814Z,26.59
2022-08-26T08:47:29.601Z,26.63
2022-08-26T08:50:00.391Z,26.75
2022-08-26T08:52:33.331Z,26.90
2022-08-26T08:55:01.455Z,27.08
2022-08-26T08:57:38.961Z,27.10
2022-08-26T09:00:12.050Z,26.99
2022-08-26T09:02:57.101Z,27.27
2022-08-26T09:05:30.040Z,27.41
2022-08-26T09:08:06.605Z,27.29
2022-08-26T09:10:56.126Z,27.06
2022-08-26T09:13:25.308Z,27.43
2022-08-26T09:16:15.909Z,27.77
2022-08-26T09:19:07.551Z,28.12
2022-08-26T09:21:34.673Z,27.97
2022-08-26T09:24:01.762Z,28.03
2022-08-26T09:26:30.577Z,28.35
2022-08-26T09:29:03.243Z,28.56
2022-08-26T09:31:33.624Z,28.55
2022-08-26T09:34:25.041Z,28.48
2022-08-26T09:36:56.611Z,28.53
2022-08-26T09:39:38.615Z,28.64
2022-08-26T09:42:21.121Z,28.58
2022-08-26T09:44:54.016Z,28.73
2022-08-26T09:47:48.159Z,28.98
2022-08-26T09:50:38.291Z,29.12
2022-08-26T09:53:21.058Z,29.31
2022-08-26T09:56:12.281Z,29.38
2022-08-26T09:58:42.231Z,29.43
2022-08-26T10:01:16.496Z,29.41
2022-08-26T10:03:44.642Z,29.49
2022-08-26T10:06:17.206Z,29.51
2022-08-26T10:08:48.025Z,29.54
2022-08-26T10:11:19.572Z,29.53
2022-08-26T10:13:51.452Z,29.56
2022-08-26T10:16:24.315Z,29.71
2022-08-26T10:19:11.523Z,29.76
2022-08-26T10:21:45.970Z,29.84
2022-08-26T10:24:23.532Z,29.90
2022-08-26T10:27:16.891Z,29.88
2022-08-26T10:29:48.130Z,29.85
2022-08-26T10:32:40.790Z,29.83
2022-08-26T10:35:13.720Z,29.95
2022-08-26T10:38:11.521Z,30.05
2022-08-26T10:40:46.349Z,30.06
2022-08-26T10:43:21.820Z,30.13
2022-08-26T10:45:54.879Z,30.17
2022-08-26T10:48:35.541Z,30.08
2022-08-26T10:51:04.247Z,30.00
2022-08-26T10:54:01.820Z,29.91
2022-08-26T10:56:37.967Z,29.91
2022-08-26T10:59:04.923Z,29.84
2022-08-26T11:01:58.201Z,29.81
2022-08-26T11:04:47.722Z,29.86
2022-08-26T11:07:47.602Z,29.90
2022-08-26T11:10:16.450Z,29.95
2022-08-26T11:12:45.479Z,30.01
2022-08-26T11:15:26.103Z,30.01
2022-08-26T11:17:55.403Z,30.05
2022-08-26T11:20:42.400Z,30.06
2022-08-26T11:23:12.524Z,30.06
2022-08-26T11:26:35.985Z,30.05
2022-08-26T11:29:03.761Z,30.08
2022-08-26T11:31:50.832Z,30.04
2022-08-26T11:34:57.104Z,30.12
2022-08-26T11:37:32.273Z,30.19
2022-08-26T11:40:01.387Z,30.30
2022-08-26T11:42:42.720Z,30.36
2022-08-26T11:45:34.210Z,30.47
2022-08-26T11:48:26.122Z,30.51
2022-08-26T11:51:13.472Z,30.47
2022-08-26T11:53:44.713Z,30.42
2022-08-26T11:56:28.782Z,30.44
2022-08-26T11:59:01.223Z,30.46
2022-08-26T12:01:37.432Z,30.65
2022-08-26T12:04:07.230Z,30.73
2022-08-26T12:06:45.000Z,30.83
2022-08-26T12:09:22.723Z,30.87
2022-08-26T12:11:49.749Z,30.73
2022-08-26T12:14:20.738Z,30.67
2022-08-26T12:16:48.132Z,30.72
2022-08-26T12:19:28.272Z,30.58
2022-08-26T12:22:20.982Z,30.49
2022-08-26T12:24:51.803Z,30.54
2022-08-26T12:27:23.253Z,30.53
2022-08-26T12:30:19.309Z,30.43
2022-08-26T12:33:22.178Z,30.33
2022-08-26T12:35:56.289Z,30.22
2022-08-26T12:38:25.189Z,30.03
2022-08-26T12:40:54.162Z,29.91
2022-08-26T12:43:43.709Z,29.73
2022-08-26T12:46:18.579Z,29.54
2022-08-26T12:48:48.767Z,29.42
2022-08-26T12:51:22.373Z,29.29
2022-08-26T12:53:49.508Z,29.34
2022-08-26T12:56:43.156Z,29.54
2022-08-26T12:59:25.209Z,29.82
2022-08-26T13:01:53.724Z,30.00
2022-08-26T13:04:41.942Z,30.00
2022-08-26T13:07:23.768Z,30.03
2022-08-26T13:09:56.731Z,30.07
2022-08-26T13:12:33.099Z,30.14
2022-08-26T13:15:01.485Z,30.11
2022-08-26T13:17:29.841Z,30.17
2022-08-26T13:20:03.246Z,30.14
2022-08-26T13:22:31.277Z,30.08
2022-08-26T13:24:58.364Z,30.09
2022-08-26T13:27:26.540Z,30.09
2022-08-26T13:29:54.332Z,30.09
2022-08-26T13:32:23.063Z,30.05
2022-08-26T13:34:55.921Z,30.05
2022-08-26T13:37:34.294Z,30.10
2022-08-26T13:40:04.606Z,30.15
2022-08-26T13:42:31.799Z,30.08
2022-08-26T13:44:59.801Z,30.03
2022-08-26T13:47:28.094Z,30.01
2022-08-26T13:49:56.408Z,29.99
2022-08-26T13:52:25.497Z,30.05
2022-08-26T13:55:00.344Z,30.08
2022-08-26T13:57:28.618Z,30.04
2022-08-26T13:59:57.230Z,29.79
2022-08-26T14:02:24.373Z,29.77
2022-08-26T14:04:53.798Z,29.86
2022-08-26T14:07:21.032Z,29.93
2022-08-26T14:09:48.282Z,29.90
2022-08-26T14:12:15.399Z,29.87
2022-08-26T14:14:42.819Z,29.80
2022-08-26T14:17:10.204Z,29.73
2022-08-26T14:19:37.661Z,29.71
2022-08-26T14:22:05.001Z,29.71
2022-08-26T14:24:32.337Z,29.67
2022-08-26T14:26:59.581Z,29.59
2022-08-26T14:29:26.948Z,29.62
2022-08-26T14:31:55.414Z,29.64
2022-08-26T14:34:22.549Z,29.61
2022-08-26T14:36:49.628Z,29.59
2022-08-26T14:39:16.686Z,29.61
2022-08-26T14:41:53.853Z,29.55
2022-08-26T14:44:27.044Z,29.53
2022-08-26T14:46:54.959Z,29.50
2022-08-26T14:49:24.021Z,29.47
2022-08-26T14:51:51.063Z,29.50
2022-08-26T14:54:18.742Z,29.46
2022-08-26T14:56:51.930Z,29.52
2022-08-26T14:59:23.519Z,29.52
2022-08-26T15:01:50.721Z,29.44
2022-08-26T15:04:18.836Z,29.45
2022-08-26T15:06:46.281Z,29.46
2022-08-26T15:09:14.449Z,29.43
2022-08-26T15:11:41.685Z,29.41
2022-08-26T15:14:19.033Z,29.43
2022-08-26T15:16:51.634Z,29.39
2022-08-26T15:19:20.016Z,29.25
2022-08-26T15:21:47.868Z,29.22
2022-08-26T15:24:18.985Z,29.18
2022-08-26T15:26:48.123Z,29.17
2022-08-26T15:29:15.658Z,29.19
2022-08-26T15:31:43.206Z,29.15
2022-08-26T15:34:16.167Z,29.08
2022-08-26T15:36:45.961Z,29.00
2022-08-26T15:39:13.714Z,28.98
2022-08-26T15:41:41.421Z,28.93
2022-08-26T15:44:11.708Z,28.85
2022-08-26T15:46:39.307Z,28.77
2022-08-26T15:49:07.425Z,28.68
2022-08-26T15:51:45.520Z,28.64
2022-08-26T15:54:14.342Z,28.54
2022-08-26T15:56:41.445Z,28.46
2022-08-26T15:59:11.930Z,28.39
2022-08-26T16:01:40.005Z,28.25
2022-08-26T16:04:07.192Z,28.16
2022-08-26T16:06:36.952Z,28.13
2022-08-26T16:09:05.651Z,28.07
2022-08-26T16:11:33.727Z,28.02
2022-08-26T16:14:00.771Z,27.94
2022-08-26T16:16:27.855Z,27.84
2022-08-26T16:18:55.193Z,27.77
2022-08-26T16:21:24.850Z,27.70
2022-08-26T16:23:51.915Z,27.62
2022-08-26T16:26:22.439Z,27.57
2022-08-26T16:28:49.598Z,27.51
2022-08-26T16:31:17.270Z,27.44
2022-08-26T16:33:44.417Z,27.34
2022-08-26T16:36:11.662Z,27.20
2022-08-26T16:38:39.511Z,27.14
2022-08-26T16:41:07.266Z,27.08
2022-08-26T16:43:35.294Z,27.02
2022-08-26T16:46:02.477Z,26.91
2022-08-26T16:48:29.507Z,26.85
2022-08-26T16:50:56.590Z,26.71
2022-08-26T16:53:23.902Z,26.43
2022-08-26T16:55:51.205Z,26.30
2022-08-26T16:58:21.150Z,26.13
2022-08-26T17:00:49.472Z,26.02
2022-08-26T17:03:16.944Z,25.85
2022-08-26T17:05:44.657Z,25.68
2022-08-26T17:08:14.531Z,25.51
2022-08-26T17:10:51.819Z,25.37
2022-08-26T17:13:35.381Z,25.37
2022-08-26T17:16:05.112Z,25.22
2022-08-26T17:18:33.674Z,25.15
2022-08-26T17:21:03.304Z,25.01
2022-08-26T17:23:30.417Z,24.95
2022-08-26T17:25:57.481Z,24.82
2022-08-26T17:28:24.422Z,24.73
2022-08-26T17:30:51.415Z,24.59
2022-08-26T17:33:24.400Z,24.44
2022-08-26T17:35:53.010Z,24.32
2022-08-26T17:38:21.321Z,24.26
2022-08-26T17:40:50.278Z,24.17
2022-08-26T17:43:18.279Z,24.10
2022-08-26T17:45:45.429Z,23.96
2022-08-26T17:48:12.602Z,23.87
2022-08-26T17:50:41.286Z,23.80
2022-08-26T17:53:08.495Z,23.74
2022-08-26T17:55:41.885Z,23.66
2022-08-26T17:58:12.233Z,23.55
2022-08-26T18:00:46.239Z,23.49
2022-08-26T18:03:13.702Z,23.41
2022-08-26T18:05:41.898Z,23.32
2022-08-26T18:08:09.774Z,23.25
2022-08-26T18:10:36.704Z,23.16
2022-08-26T18:13:03.733Z,23.12
2022-08-26T18:15:30.701Z,23.02
2022-08-26T18:17:57.746Z,22.93
2022-08-26T18:20:24.704Z,22.90
2022-08-26T18:22:51.629Z,22.86
2022-08-26T18:25:19.064Z,22.79
2022-08-26T18:27:46.072Z,22.73
2022-08-26T18:30:16.993Z,22.68
2022-08-26T18:32:44.531Z,22.66
2022-08-26T18:35:11.818Z,22.61
2022-08-26T18:37:39.425Z,22.54
2022-08-26T18:40:09.335Z,22.47
2022-08-26T18:42:36.971Z,22.47
2022-08-26T18:45:05.947Z,22.46
2022-08-26T18:47:33.317Z,22.48
2022-08-26T18:50:04.645Z,22.43
2022-08-26T18:52:32.447Z,22.37
2022-08-26T18:54:59.530Z,22.26
2022-08-26T18:57:26.475Z,22.20
2022-08-26T18:59:53.519Z,22.16
2022-08-26T19:02:20.594Z,22.13
2022-08-26T19:04:47.687Z,22.10
2022-08-26T19:07:14.626Z,22.07
2022-08-26T19:09:41.520Z,22.05
2022-08-26T19:12:08.838Z,22.04
2022-08-26T19:14:36.714Z,22.02
2022-08-26T19:17:04.298Z,21.95
2022-08-26T19:19:31.805Z,21.93
2022-08-26T19:21:58.999Z,21.96
2022-08-26T19:24:27.439Z,21.94
2022-08-26T19:26:59.197Z,21.91
2022-08-26T19:29:31.900Z,21.87
2022-08-26T19:31:59.396Z,21.82
2022-08-26T19:34:26.582Z,21.70
2022-08-26T19:36:56.876Z,21.57
2022-08-26T19:39:24.772Z,21.48
2022-08-26T19:41:52.198Z,21.39
2022-08-26T19:44:39.804Z,21.37
2022-08-26T19:47:09.007Z,21.32
2022-08-26T19:49:36.575Z,21.28
2022-08-26T19:52:04.027Z,21.27
2022-08-26T19:54:31.303Z,21.23
2022-08-26T19:56:58.287Z,21.18
2022-08-26T19:59:25.297Z,21.14
2022-08-26T20:02:01.187Z,21.11
2022-08-26T20:04:30.220Z,21.09
2022-08-26T20:06:58.823Z,21.06
2022-08-26T20:09:32.645Z,21.01
2022-08-26T20:12:00.077Z,20.97
2022-08-26T20:14:27.686Z,20.86
2022-08-26T20:16:54.773Z,20.80
2022-08-26T20:19:40.388Z,20.79
2022-08-26T20:22:07.484Z,20.71
2022-08-26T20:24:35.655Z,20.63
2022-08-26T20:27:07.673Z,20.60
2022-08-26T20:29:36.025Z,20.58
2022-08-26T20:32:06.159Z,20.55
2022-08-26T20:34:34.023Z,20.56
2022-08-26T20:37:01.062Z,20.55
2022-08-26T20:39:30.164Z,20.54
2022-08-26T20:41:58.159Z,20.56
2022-08-26T20:44:25.694Z,20.57
2022-08-26T20:46:52.852Z,20.53
2022-08-26T20:49:20.012Z,20.51
2022-08-26T20:51:51.489Z,20.47
2022-08-26T20:54:22.185Z,20.45
2022-08-26T20:56:52.204Z,20.45
2022-08-26T20:59:21.096Z,20.39
2022-08-26T21:01:48.567Z,20.35
2022-08-26T21:04:18.493Z,20.30
2022-08-26T21:06:49.031Z,20.30
2022-08-26T21:09:23.931Z,20.29
2022-08-26T21:11:51.804Z,20.23
2022-08-26T21:14:20.585Z,20.17
2022-08-26T21:16:47.890Z,20.10
2022-08-26T21:19:17.655Z,20.07
2022-08-26T21:21:45.884Z,20.04
2022-08-26T21:24:13.444Z,20.02
2022-08-26T21:26:41.189Z,20.04
2022-08-26T21:29:10.027Z,20.00
2022-08-26T21:31:40.968Z,20.03
2022-08-26T21:34:09.508Z,19.99
2022-08-26T21:36:36.494Z,19.97
2022-08-26T21:39:06.998Z,19.98
2022-08-26T21:41:38.097Z,19.91
2022-08-26T21:44:05.155Z,19.88
2022-08-26T21:46:32.178Z,19.86
2022-08-26T21:49:02.293Z,19.82
2022-08-26T21:51:32.444Z,19.75
2022-08-26T21:54:01.087Z,19.72
2022-08-26T21:56:31.324Z,19.70
2022-08-26T21:58:59.360Z,19.67
2022-08-26T22:01:29.561Z,19.64
2022-08-26T22:03:56.762Z,19.64
2022-08-26T22:06:26.304Z,19.62
2022-08-26T22:08:53.658Z,19.62
2022-08-26T22:11:20.830Z,19.59
2022-08-26T22:13:48.762Z,19.56
2022-08-26T22:16:15.983Z,19.54
2022-08-26T22:18:45.845Z,19.52
2022-08-26T22:21:16.964Z,19.53
2022-08-26T22:23:44.685Z,19.53
2022-08-26T22:26:13.421Z,19.55
2022-08-26T22:28:40.475Z,19.50
2022-08-26T22:31:09.441Z,19.44
2022-08-26T22:33:36.446Z,19.43
2022-08-26T22:36:04.370Z,19.42
2022-08-26T22:38:31.609Z,19.43
2022-08-26T22:41:00.369Z,19.38
2022-08-26T22:43:28.870Z,19.32
2022-08-26T22:45:56.255Z,19.32
2022-08-26T22:48:25.034Z,19.32
2022-08-26T22:50:57.194Z,19.29
2022-08-26T22:53:27.151Z,19.28
2022-08-26T22:55:54.520Z,19.26
2022-08-26T22:58:30.407Z,19.26
2022-08-26T23:00:59.351Z,19.26
2022-08-26T23:03:27.123Z,19.24
2022-08-26T23:05:55.577Z,19.21
2022-08-26T23:08:24.721Z,19.17
2022-08-26T23:10:52.412Z,19.11
2022-08-26T23:13:19.884Z,19.12
2022-08-26T23:15:47.104Z,19.08
2022-08-26T23:18:15.038Z,19.04
2022-08-26T23:20:42.612Z,18.98
2022-08-26T23:23:09.699Z,18.97
2022-08-26T23:25:36.770Z,18.92
2022-08-26T23:28:04.626Z,18.89
2022-08-26T23:30:33.048Z,18.86
2022-08-26T23:33:00.402Z,18.81
2022-08-26T23:35:28.223Z,18.78
2022-08-26T23:37:55.932Z,18.77
2022-08-26T23:40:34.083Z,18.75
2022-08-26T23:43:06.168Z,18.72
2022-08-26T23:45:34.358Z,18.68
2022-08-26T23:48:01.652Z,18.66
2022-08-26T23:50:48.791Z,18.64
2022-08-26T23:53:21.379Z,18.61
2022-08-26T23:55:51.841Z,18.57
2022-08-26T23:58:20.822Z,18.51
